sensor_id;sensor_type;location;lat;lon;timestamp;temperature;humidity
71177;DHT22;58877;51.992;4.504;2022-08-18T00:01:38;19.65;84.22
71177;DHT22;58877;51.992;4.504;2022-08-18T00:04:06;19.71;84.15
71177;DHT22;58877;51.992;4.504;2022-08-18T00:06:32;19.71;84.34
71177;DHT22;58877;51.992;4.504;2022-08-18T00:09:00;19.78;84.20
71177;DHT22;58877;51.992;4.504;2022-08-18T00:11:27;19.79;84.12
71177;DHT22;58877;51.992;4.504;2022-08-18T00:13:54;19.79;84.30
71177;DHT22;58877;51.992;4.504;2022-08-18T00:16:20;19.78;84.57
71177;DHT22;58877;51.992;4.504;2022-08-18T00:18:46;19.82;84.34
71177;DHT22;58877;51.992;4.504;2022-08-18T00:21:11;19.82;84.42
71177;DHT22;58877;51.992;4.504;2022-08-18T00:23:37;19.77;84.83
71177;DHT22;58877;51.992;4.504;2022-08-18T00:26:03;19.78;85.19
71177;DHT22;58877;51.992;4.504;2022-08-18T00:28:28;19.85;84.68
71177;DHT22;58877;51.992;4.504;2022-08-18T00:30:54;19.84;84.63
71177;DHT22;58877;51.992;4.504;2022-08-18T00:33:21;19.81;84.79
71177;DHT22;58877;51.992;4.504;2022-08-18T00:35:47;19.75;84.85
71177;DHT22;58877;51.992;4.504;2022-08-18T00:38:12;19.74;84.92
71177;DHT22;58877;51.992;4.504;2022-08-18T00:40:47;19.82;84.74
71177;DHT22;58877;51.992;4.504;2022-08-18T00:43:31;19.89;84.42
71177;DHT22;58877;51.992;4.504;2022-08-18T00:45:59;19.84;84.22
71177;DHT22;58877;51.992;4.504;2022-08-18T00:48:25;19.75;84.70
71177;DHT22;58877;51.992;4.504;2022-08-18T00:50:55;19.60;85.23
71177;DHT22;58877;51.992;4.504;2022-08-18T00:56:38;19.68;85.32
71177;DHT22;58877;51.992;4.504;2022-08-18T01:01:40;19.58;85.53
71177;DHT22;58877;51.992;4.504;2022-08-18T01:04:13;19.50;85.81
71177;DHT22;58877;51.992;4.504;2022-08-18T01:06:45;19.38;86.50
71177;DHT22;58877;51.992;4.504;2022-08-18T01:09:13;19.28;86.73
71177;DHT22;58877;51.992;4.504;2022-08-18T01:11:41;19.33;86.74
71177;DHT22;58877;51.992;4.504;2022-08-18T01:14:09;19.37;86.54
71177;DHT22;58877;51.992;4.504;2022-08-18T01:16:35;19.41;86.47
71177;DHT22;58877;51.992;4.504;2022-08-18T01:19:21;19.41;86.44
71177;DHT22;58877;51.992;4.504;2022-08-18T01:22:35;19.44;86.26
71177;DHT22;58877;51.992;4.504;2022-08-18T01:25:02;19.31;86.22
71177;DHT22;58877;51.992;4.504;2022-08-18T01:27:47;19.30;86.79
71177;DHT22;58877;51.992;4.504;2022-08-18T01:30:15;19.24;87.08
71177;DHT22;58877;51.992;4.504;2022-08-18T01:32:43;19.30;87.05
71177;DHT22;58877;51.992;4.504;2022-08-18T01:35:14;19.38;86.81
71177;DHT22;58877;51.992;4.504;2022-08-18T01:37:41;19.53;86.21
71177;DHT22;58877;51.992;4.504;2022-08-18T01:40:09;19.55;85.80
71177;DHT22;58877;51.992;4.504;2022-08-18T01:42:36;19.55;85.95
71177;DHT22;58877;51.992;4.504;2022-08-18T01:45:05;19.64;85.76
71177;DHT22;58877;51.992;4.504;2022-08-18T01:47:34;19.70;85.22
71177;DHT22;58877;51.992;4.504;2022-08-18T01:50:00;19.60;85.31
71177;DHT22;58877;51.992;4.504;2022-08-18T01:52:26;19.53;85.17
71177;DHT22;58877;51.992;4.504;2022-08-18T01:54:54;19.51;85.07
71177;DHT22;58877;51.992;4.504;2022-08-18T01:57:23;19.49;84.94
71177;DHT22;58877;51.992;4.504;2022-08-18T01:59:49;19.47;85.13
71177;DHT22;58877;51.992;4.504;2022-08-18T02:02:22;19.49;85.07
71177;DHT22;58877;51.992;4.504;2022-08-18T02:05:00;19.46;84.89
71177;DHT22;58877;51.992;4.504;2022-08-18T02:07:27;19.44;84.78
71177;DHT22;58877;51.992;4.504;2022-08-18T02:09:52;19.43;84.89
71177;DHT22;58877;51.992;4.504;2022-08-18T02:12:18;19.41;84.86
71177;DHT22;58877;51.992;4.504;2022-08-18T02:14:44;19.35;84.97
71177;DHT22;58877;51.992;4.504;2022-08-18T02:17:12;19.33;85.12
71177;DHT22;58877;51.992;4.504;2022-08-18T02:19:41;19.54;84.63
71177;DHT22;58877;51.992;4.504;2022-08-18T02:22:09;19.70;84.35
71177;DHT22;58877;51.992;4.504;2022-08-18T02:24:36;19.54;84.55
71177;DHT22;58877;51.992;4.504;2022-08-18T02:27:03;19.34;84.78
71177;DHT22;58877;51.992;4.504;2022-08-18T02:29:30;19.24;84.77
71177;DHT22;58877;51.992;4.504;2022-08-18T02:31:55;19.19;84.97
71177;DHT22;58877;51.992;4.504;2022-08-18T02:34:21;19.12;85.02
71177;DHT22;58877;51.992;4.504;2022-08-18T02:36:47;19.06;84.96
71177;DHT22;58877;51.992;4.504;2022-08-18T02:39:15;19.02;84.83
71177;DHT22;58877;51.992;4.504;2022-08-18T02:41:40;19.06;85.04
71177;DHT22;58877;51.992;4.504;2022-08-18T02:44:07;19.07;85.06
71177;DHT22;58877;51.992;4.504;2022-08-18T02:46:34;19.10;84.65
71177;DHT22;58877;51.992;4.504;2022-08-18T02:49:00;19.00;84.68
71177;DHT22;58877;51.992;4.504;2022-08-18T02:51:26;18.93;85.04
71177;DHT22;58877;51.992;4.504;2022-08-18T02:53:51;18.86;84.98
71177;DHT22;58877;51.992;4.504;2022-08-18T02:56:21;19.03;84.77
71177;DHT22;58877;51.992;4.504;2022-08-18T02:58:57;19.17;84.41
71177;DHT22;58877;51.992;4.504;2022-08-18T03:01:26;19.28;84.36
71177;DHT22;58877;51.992;4.504;2022-08-18T03:03:53;19.17;84.41
71177;DHT22;58877;51.992;4.504;2022-08-18T03:06:19;19.00;84.67
71177;DHT22;58877;51.992;4.504;2022-08-18T03:08:46;18.86;84.95
71177;DHT22;58877;51.992;4.504;2022-08-18T03:11:15;18.96;84.91
71177;DHT22;58877;51.992;4.504;2022-08-18T03:13:41;19.24;84.48
71177;DHT22;58877;51.992;4.504;2022-08-18T03:16:07;19.09;84.85
71177;DHT22;58877;51.992;4.504;2022-08-18T03:18:32;18.95;85.49
71177;DHT22;58877;51.992;4.504;2022-08-18T03:21:05;18.86;85.94
71177;DHT22;58877;51.992;4.504;2022-08-18T03:23:30;18.79;86.16
71177;DHT22;58877;51.992;4.504;2022-08-18T03:25:56;18.77;86.35
71177;DHT22;58877;51.992;4.504;2022-08-18T03:28:22;18.80;86.18
71177;DHT22;58877;51.992;4.504;2022-08-18T03:30:47;18.88;86.15
71177;DHT22;58877;51.992;4.504;2022-08-18T03:33:13;18.95;85.97
71177;DHT22;58877;51.992;4.504;2022-08-18T03:35:38;18.98;85.68
71177;DHT22;58877;51.992;4.504;2022-08-18T03:38:05;19.02;85.60
71177;DHT22;58877;51.992;4.504;2022-08-18T03:40:31;19.03;85.50
71177;DHT22;58877;51.992;4.504;2022-08-18T03:42:57;19.09;85.34
71177;DHT22;58877;51.992;4.504;2022-08-18T03:45:23;19.10;85.10
71177;DHT22;58877;51.992;4.504;2022-08-18T03:47:51;19.13;85.03
71177;DHT22;58877;51.992;4.504;2022-08-18T03:50:18;19.14;85.22
71177;DHT22;58877;51.992;4.504;2022-08-18T03:52:45;19.07;85.23
71177;DHT22;58877;51.992;4.504;2022-08-18T03:55:14;19.10;85.10
71177;DHT22;58877;51.992;4.504;2022-08-18T03:57:41;19.20;84.56
71177;DHT22;58877;51.992;4.504;2022-08-18T04:00:07;19.07;85.01
71177;DHT22;58877;51.992;4.504;2022-08-18T04:02:34;18.95;85.49
71177;DHT22;58877;51.992;4.504;2022-08-18T04:05:00;18.83;85.85
71177;DHT22;58877;51.992;4.504;2022-08-18T04:07:25;18.68;86.05
71177;DHT22;58877;51.992;4.504;2022-08-18T04:09:51;18.62;86.03
71177;DHT22;58877;51.992;4.504;2022-08-18T04:12:16;18.58;85.95
71177;DHT22;58877;51.992;4.504;2022-08-18T04:14:45;18.58;85.60
71177;DHT22;58877;51.992;4.504;2022-08-18T04:17:12;18.68;85.73
71177;DHT22;58877;51.992;4.504;2022-08-18T04:19:38;18.68;85.83
71177;DHT22;58877;51.992;4.504;2022-08-18T04:22:04;18.68;85.81
71177;DHT22;58877;51.992;4.504;2022-08-18T04:24:31;18.68;85.72
71177;DHT22;58877;51.992;4.504;2022-08-18T04:26:59;18.72;85.67
71177;DHT22;58877;51.992;4.504;2022-08-18T04:29:26;18.73;85.31
71177;DHT22;58877;51.992;4.504;2022-08-18T04:31:53;18.77;85.32
71177;DHT22;58877;51.992;4.504;2022-08-18T04:34:21;18.79;85.40
71177;DHT22;58877;51.992;4.504;2022-08-18T04:36:48;18.85;85.09
71177;DHT22;58877;51.992;4.504;2022-08-18T04:39:14;19.07;84.91
71177;DHT22;58877;51.992;4.504;2022-08-18T04:41:42;18.85;85.49
71177;DHT22;58877;51.992;4.504;2022-08-18T04:44:09;18.65;86.52
71177;DHT22;58877;51.992;4.504;2022-08-18T04:46:41;18.41;87.64
71177;DHT22;58877;51.992;4.504;2022-08-18T04:49:07;18.32;88.75
71177;DHT22;58877;51.992;4.504;2022-08-18T04:51:33;18.38;88.45
71177;DHT22;58877;51.992;4.504;2022-08-18T04:53:59;18.32;88.31
71177;DHT22;58877;51.992;4.504;2022-08-18T04:56:36;18.45;88.13
71177;DHT22;58877;51.992;4.504;2022-08-18T04:59:06;18.58;87.79
71177;DHT22;58877;51.992;4.504;2022-08-18T05:01:35;18.66;87.55
71177;DHT22;58877;51.992;4.504;2022-08-18T05:04:04;18.69;87.41
71177;DHT22;58877;51.992;4.504;2022-08-18T05:06:30;18.70;87.13
71177;DHT22;58877;51.992;4.504;2022-08-18T05:09:01;18.68;87.02
71177;DHT22;58877;51.992;4.504;2022-08-18T05:11:29;18.63;87.12
71177;DHT22;58877;51.992;4.504;2022-08-18T05:14:00;18.69;87.12
71177;DHT22;58877;51.992;4.504;2022-08-18T05:16:27;18.70;87.18
71177;DHT22;58877;51.992;4.504;2022-08-18T05:18:56;18.72;87.08
71177;DHT22;58877;51.992;4.504;2022-08-18T05:21:21;18.77;86.89
71177;DHT22;58877;51.992;4.504;2022-08-18T05:23:50;18.79;86.81
71177;DHT22;58877;51.992;4.504;2022-08-18T05:26:17;18.85;86.67
71177;DHT22;58877;51.992;4.504;2022-08-18T05:28:44;18.95;86.69
71177;DHT22;58877;51.992;4.504;2022-08-18T05:31:13;19.12;86.24
71177;DHT22;58877;51.992;4.504;2022-08-18T05:33:40;19.23;86.10
71177;DHT22;58877;51.992;4.504;2022-08-18T05:41:47;19.31;86.06
71177;DHT22;58877;51.992;4.504;2022-08-18T05:44:18;19.50;85.45
71177;DHT22;58877;51.992;4.504;2022-08-18T05:46:57;19.57;85.54
71177;DHT22;58877;51.992;4.504;2022-08-18T05:49:25;19.53;86.21
71177;DHT22;58877;51.992;4.504;2022-08-18T05:52:00;19.54;86.66
71177;DHT22;58877;51.992;4.504;2022-08-18T05:54:55;19.60;86.90
71177;DHT22;58877;51.992;4.504;2022-08-18T05:57:55;19.73;86.52
71177;DHT22;58877;51.992;4.504;2022-08-18T06:00:23;19.78;86.50
71177;DHT22;58877;51.992;4.504;2022-08-18T06:02:56;19.82;86.58
71177;DHT22;58877;51.992;4.504;2022-08-18T06:05:30;19.98;86.56
71177;DHT22;58877;51.992;4.504;2022-08-18T06:08:08;20.14;86.20
71177;DHT22;58877;51.992;4.504;2022-08-18T06:10:35;20.18;85.90
71177;DHT22;58877;51.992;4.504;2022-08-18T06:13:01;20.18;85.54
71177;DHT22;58877;51.992;4.504;2022-08-18T06:15:53;20.29;85.83
71177;DHT22;58877;51.992;4.504;2022-08-18T06:21:09;20.66;84.70
71177;DHT22;58877;51.992;4.504;2022-08-18T06:29:37;20.87;83.49
71177;DHT22;58877;51.992;4.504;2022-08-18T06:35:18;20.97;83.54
71177;DHT22;58877;51.992;4.504;2022-08-18T06:40:41;21.26;83.30
71177;DHT22;58877;51.992;4.504;2022-08-18T06:43:12;21.31;81.62
71177;DHT22;58877;51.992;4.504;2022-08-18T06:45:43;21.19;82.17
71177;DHT22;58877;51.992;4.504;2022-08-18T06:48:23;21.13;82.22
71177;DHT22;58877;51.992;4.504;2022-08-18T06:50:59;21.24;82.15
71177;DHT22;58877;51.992;4.504;2022-08-18T06:59:27;21.40;80.55
71177;DHT22;58877;51.992;4.504;2022-08-18T07:04:42;21.79;79.75
71177;DHT22;58877;51.992;4.504;2022-08-18T07:07:35;21.77;78.84
71177;DHT22;58877;51.992;4.504;2022-08-18T07:10:28;21.69;79.53
71177;DHT22;58877;51.992;4.504;2022-08-18T07:13:05;21.77;79.23
71177;DHT22;58877;51.992;4.504;2022-08-18T07:15:31;21.92;79.04
71177;DHT22;58877;51.992;4.504;2022-08-18T07:18:05;21.95;78.05
71177;DHT22;58877;51.992;4.504;2022-08-18T07:20:45;22.06;77.96
71177;DHT22;58877;51.992;4.504;2022-08-18T07:23:31;21.99;78.29
71177;DHT22;58877;51.992;4.504;2022-08-18T07:26:15;22.08;78.17
71177;DHT22;58877;51.992;4.504;2022-08-18T07:28:42;22.02;77.71
71177;DHT22;58877;51.992;4.504;2022-08-18T07:31:20;21.94;77.92
71177;DHT22;58877;51.992;4.504;2022-08-18T07:33:56;22.19;77.96
71177;DHT22;58877;51.992;4.504;2022-08-18T07:36:26;22.45;76.52
71177;DHT22;58877;51.992;4.504;2022-08-18T07:39:00;22.23;76.08
71177;DHT22;58877;51.992;4.504;2022-08-18T07:49:24;22.99;72.76
71177;DHT22;58877;51.992;4.504;2022-08-18T07:55:05;23.33;72.15
71177;DHT22;58877;51.992;4.504;2022-08-18T08:14:05;22.52;73.12
71177;DHT22;58877;51.992;4.504;2022-08-18T08:19:45;22.82;73.52
71177;DHT22;58877;51.992;4.504;2022-08-18T08:25:52;23.33;71.07
71177;DHT22;58877;51.992;4.504;2022-08-18T08:34:24;23.10;73.00
71177;DHT22;58877;51.992;4.504;2022-08-18T08:37:20;23.10;72.46
71177;DHT22;58877;51.992;4.504;2022-08-18T08:42:32;22.41;74.42
71177;DHT22;58877;51.992;4.504;2022-08-18T08:45:17;22.38;74.65
71177;DHT22;58877;51.992;4.504;2022-08-18T08:48:08;22.84;74.04
71177;DHT22;58877;51.992;4.504;2022-08-18T08:50:51;23.18;72.27
71177;DHT22;58877;51.992;4.504;2022-08-18T08:53:34;23.31;71.85
71177;DHT22;58877;51.992;4.504;2022-08-18T08:56:07;23.57;71.42
71177;DHT22;58877;51.992;4.504;2022-08-18T09:07:08;23.26;72.31
71177;DHT22;58877;51.992;4.504;2022-08-18T09:12:24;22.57;74.29
71177;DHT22;58877;51.992;4.504;2022-08-18T09:15:28;22.64;73.96
71177;DHT22;58877;51.992;4.504;2022-08-18T09:18:27;22.77;72.70
71177;DHT22;58877;51.992;4.504;2022-08-18T09:23:52;23.44;71.32
71177;DHT22;58877;51.992;4.504;2022-08-18T09:29:22;23.77;69.07
71177;DHT22;58877;51.992;4.504;2022-08-18T09:40:59;23.99;67.79
71177;DHT22;58877;51.992;4.504;2022-08-18T09:51:57;24.48;66.31
71177;DHT22;58877;51.992;4.504;2022-08-18T09:54:31;24.64;65.82
71177;DHT22;58877;51.992;4.504;2022-08-18T09:57:14;24.57;65.41
71177;DHT22;58877;51.992;4.504;2022-08-18T10:13:25;24.35;67.69
71177;DHT22;58877;51.992;4.504;2022-08-18T10:22:05;24.56;66.88
71177;DHT22;58877;51.992;4.504;2022-08-18T10:24:41;24.42;67.47
71177;DHT22;58877;51.992;4.504;2022-08-18T10:27:35;24.49;66.59
71177;DHT22;58877;51.992;4.504;2022-08-18T10:30:02;24.39;65.73
71177;DHT22;58877;51.992;4.504;2022-08-18T10:32:41;24.32;65.75
71177;DHT22;58877;51.992;4.504;2022-08-18T10:38:13;24.43;64.81
71177;DHT22;58877;51.992;4.504;2022-08-18T10:40:55;24.57;64.43
71177;DHT22;58877;51.992;4.504;2022-08-18T10:43:50;24.46;65.23
71177;DHT22;58877;51.992;4.504;2022-08-18T10:46:25;24.35;66.39
71177;DHT22;58877;51.992;4.504;2022-08-18T10:52:25;24.52;66.25
71177;DHT22;58877;51.992;4.504;2022-08-18T11:00:19;24.82;64.96
71177;DHT22;58877;51.992;4.504;2022-08-18T11:05:22;24.87;63.35
71177;DHT22;58877;51.992;4.504;2022-08-18T11:07:58;24.73;62.68
71177;DHT22;58877;51.992;4.504;2022-08-18T11:10:40;24.76;62.75
71177;DHT22;58877;51.992;4.504;2022-08-18T11:24:24;24.90;59.65
71177;DHT22;58877;51.992;4.504;2022-08-18T11:26:56;24.86;58.69
71177;DHT22;58877;51.992;4.504;2022-08-18T11:29:30;24.93;58.53
71177;DHT22;58877;51.992;4.504;2022-08-18T11:32:21;25.02;58.58
71177;DHT22;58877;51.992;4.504;2022-08-18T11:56:14;26.37;54.25
71177;DHT22;58877;51.992;4.504;2022-08-18T11:58:44;25.82;55.11
71177;DHT22;58877;51.992;4.504;2022-08-18T12:01:27;25.65;55.35
71177;DHT22;58877;51.992;4.504;2022-08-18T12:03:55;25.64;55.81
71177;DHT22;58877;51.992;4.504;2022-08-18T12:06:30;25.59;55.15
71177;DHT22;58877;51.992;4.504;2022-08-18T12:09:03;25.79;55.65
71177;DHT22;58877;51.992;4.504;2022-08-18T12:11:33;25.81;55.03
71177;DHT22;58877;51.992;4.504;2022-08-18T12:14:17;25.99;54.45
71177;DHT22;58877;51.992;4.504;2022-08-18T12:16:45;26.31;54.04
71177;DHT22;58877;51.992;4.504;2022-08-18T12:19:12;26.31;52.96
71177;DHT22;58877;51.992;4.504;2022-08-18T12:21:45;26.46;53.31
71177;DHT22;58877;51.992;4.504;2022-08-18T12:24:29;26.44;52.52
71177;DHT22;58877;51.992;4.504;2022-08-18T12:26:57;26.50;51.51
71177;DHT22;58877;51.992;4.504;2022-08-18T12:29:24;26.64;52.08
71177;DHT22;58877;51.992;4.504;2022-08-18T12:31:53;27.04;52.20
71177;DHT22;58877;51.992;4.504;2022-08-18T12:34:23;27.49;51.85
71177;DHT22;58877;51.992;4.504;2022-08-18T12:36:55;27.77;50.73
71177;DHT22;58877;51.992;4.504;2022-08-18T12:39:21;27.77;49.59
71177;DHT22;58877;51.992;4.504;2022-08-18T12:41:47;27.79;51.92
71177;DHT22;58877;51.992;4.504;2022-08-18T12:44:13;27.84;49.64
71177;DHT22;58877;51.992;4.504;2022-08-18T12:46:40;27.77;49.44
71177;DHT22;58877;51.992;4.504;2022-08-18T12:49:11;27.84;50.71
71177;DHT22;58877;51.992;4.504;2022-08-18T12:51:39;28.05;49.33
71177;DHT22;58877;51.992;4.504;2022-08-18T12:54:05;27.47;50.20
71177;DHT22;58877;51.992;4.504;2022-08-18T12:56:33;27.40;53.07
71177;DHT22;58877;51.992;4.504;2022-08-18T12:59:05;27.48;51.40
71177;DHT22;58877;51.992;4.504;2022-08-18T13:01:33;27.00;51.99
71177;DHT22;58877;51.992;4.504;2022-08-18T13:03:58;26.84;51.89
71177;DHT22;58877;51.992;4.504;2022-08-18T13:06:25;26.53;52.94
71177;DHT22;58877;51.992;4.504;2022-08-18T13:08:51;26.23;54.14
71177;DHT22;58877;51.992;4.504;2022-08-18T13:11:20;26.28;55.48
71177;DHT22;58877;51.992;4.504;2022-08-18T13:13:45;26.37;55.51
71177;DHT22;58877;51.992;4.504;2022-08-18T13:16:12;26.43;56.54
71177;DHT22;58877;51.992;4.504;2022-08-18T13:18:39;26.33;55.58
71177;DHT22;58877;51.992;4.504;2022-08-18T13:21:11;26.31;55.31
71177;DHT22;58877;51.992;4.504;2022-08-18T13:23:38;26.25;55.57
71177;DHT22;58877;51.992;4.504;2022-08-18T13:26:07;26.23;57.04
71177;DHT22;58877;51.992;4.504;2022-08-18T13:28:34;26.19;55.76
71177;DHT22;58877;51.992;4.504;2022-08-18T13:31:01;25.98;55.83
71177;DHT22;58877;51.992;4.504;2022-08-18T13:33:27;25.93;55.31
71177;DHT22;58877;51.992;4.504;2022-08-18T13:35:53;25.89;55.66
71177;DHT22;58877;51.992;4.504;2022-08-18T13:38:20;25.91;56.53
71177;DHT22;58877;51.992;4.504;2022-08-18T13:40:52;26.13;56.10
71177;DHT22;58877;51.992;4.504;2022-08-18T13:43:21;25.95;56.39
71177;DHT22;58877;51.992;4.504;2022-08-18T13:45:47;25.93;56.09
71177;DHT22;58877;51.992;4.504;2022-08-18T13:48:15;25.95;56.99
71177;DHT22;58877;51.992;4.504;2022-08-18T13:50:42;25.79;56.94
71177;DHT22;58877;51.992;4.504;2022-08-18T13:53:17;25.78;57.50
71177;DHT22;58877;51.992;4.504;2022-08-18T13:55:45;25.74;57.64
71177;DHT22;58877;51.992;4.504;2022-08-18T13:58:11;25.68;57.61
71177;DHT22;58877;51.992;4.504;2022-08-18T14:00:38;25.79;57.31
71177;DHT22;58877;51.992;4.504;2022-08-18T14:03:05;25.85;56.03
71177;DHT22;58877;51.992;4.504;2022-08-18T14:05:33;25.88;57.24
71177;DHT22;58877;51.992;4.504;2022-08-18T14:08:00;25.77;56.93
71177;DHT22;58877;51.992;4.504;2022-08-18T14:10:27;25.62;57.91
71177;DHT22;58877;51.992;4.504;2022-08-18T14:12:55;25.62;58.09
71177;DHT22;58877;51.992;4.504;2022-08-18T14:15:21;25.42;60.84
71177;DHT22;58877;51.992;4.504;2022-08-18T14:17:47;25.18;62.62
71177;DHT22;58877;51.992;4.504;2022-08-18T14:20:13;24.98;62.87
71177;DHT22;58877;51.992;4.504;2022-08-18T14:22:59;24.59;64.51
71177;DHT22;58877;51.992;4.504;2022-08-18T14:25:44;24.42;65.41
71177;DHT22;58877;51.992;4.504;2022-08-18T14:28:30;24.86;64.38
71177;DHT22;58877;51.992;4.504;2022-08-18T14:30:58;24.70;63.83
71177;DHT22;58877;51.992;4.504;2022-08-18T14:33:25;24.84;64.23
71177;DHT22;58877;51.992;4.504;2022-08-18T14:35:51;24.94;63.74
71177;DHT22;58877;51.992;4.504;2022-08-18T14:38:17;24.88;64.02
71177;DHT22;58877;51.992;4.504;2022-08-18T14:40:44;24.57;65.26
71177;DHT22;58877;51.992;4.504;2022-08-18T14:43:12;24.35;65.69
71177;DHT22;58877;51.992;4.504;2022-08-18T14:45:41;24.33;66.23
71177;DHT22;58877;51.992;4.504;2022-08-18T14:48:16;24.43;65.85
71177;DHT22;58877;51.992;4.504;2022-08-18T14:50:47;24.66;65.43
71177;DHT22;58877;51.992;4.504;2022-08-18T14:53:15;24.37;65.88
71177;DHT22;58877;51.992;4.504;2022-08-18T14:55:41;24.08;66.72
71177;DHT22;58877;51.992;4.504;2022-08-18T14:58:07;24.08;67.42
71177;DHT22;58877;51.992;4.504;2022-08-18T15:00:34;24.09;67.16
71177;DHT22;58877;51.992;4.504;2022-08-18T15:03:00;23.97;67.26
71177;DHT22;58877;51.992;4.504;2022-08-18T15:05:26;24.04;67.08
71177;DHT22;58877;51.992;4.504;2022-08-18T15:07:57;23.94;66.79
71177;DHT22;58877;51.992;4.504;2022-08-18T15:10:23;23.94;67.15
71177;DHT22;58877;51.992;4.504;2022-08-18T15:12:49;24.06;66.74
71177;DHT22;58877;51.992;4.504;2022-08-18T15:15:15;24.11;66.53
71177;DHT22;58877;51.992;4.504;2022-08-18T15:17:41;24.44;65.52
71177;DHT22;58877;51.992;4.504;2022-08-18T15:20:09;24.26;65.76
71177;DHT22;58877;51.992;4.504;2022-08-18T15:22:43;24.72;64.37
71177;DHT22;58877;51.992;4.504;2022-08-18T15:25:28;25.79;61.06
71177;DHT22;58877;51.992;4.504;2022-08-18T15:28:26;26.03;60.25
71177;DHT22;58877;51.992;4.504;2022-08-18T15:30:52;26.29;59.72
71177;DHT22;58877;51.992;4.504;2022-08-18T15:33:18;26.36;59.32
71177;DHT22;58877;51.992;4.504;2022-08-18T15:35:45;26.40;58.94
71177;DHT22;58877;51.992;4.504;2022-08-18T15:38:15;26.49;59.22
71177;DHT22;58877;51.992;4.504;2022-08-18T15:40:52;26.67;57.83
71177;DHT22;58877;51.992;4.504;2022-08-18T15:43:18;26.80;57.83
71177;DHT22;58877;51.992;4.504;2022-08-18T15:45:45;26.86;57.39
71177;DHT22;58877;51.992;4.504;2022-08-18T15:48:14;27.04;56.61
71177;DHT22;58877;51.992;4.504;2022-08-18T15:50:40;27.10;56.88
71177;DHT22;58877;51.992;4.504;2022-08-18T15:53:06;27.49;56.27
71177;DHT22;58877;51.992;4.504;2022-08-18T15:55:34;27.59;55.74
71177;DHT22;58877;51.992;4.504;2022-08-18T15:58:05;27.61;55.04
71177;DHT22;58877;51.992;4.504;2022-08-18T16:00:31;27.41;55.18
71177;DHT22;58877;51.992;4.504;2022-08-18T16:03:05;27.44;55.50
71177;DHT22;58877;51.992;4.504;2022-08-18T16:05:35;27.71;54.99
71177;DHT22;58877;51.992;4.504;2022-08-18T16:08:03;27.65;54.77
71177;DHT22;58877;51.992;4.504;2022-08-18T16:10:33;27.59;54.48
71177;DHT22;58877;51.992;4.504;2022-08-18T16:12:59;27.37;54.69
71177;DHT22;58877;51.992;4.504;2022-08-18T16:15:27;28.02;54.13
71177;DHT22;58877;51.992;4.504;2022-08-18T16:17:54;28.02;52.72
71177;DHT22;58877;51.992;4.504;2022-08-18T16:20:22;28.10;52.96
71177;DHT22;58877;51.992;4.504;2022-08-18T16:22:49;27.93;53.49
71177;DHT22;58877;51.992;4.504;2022-08-18T16:25:15;27.82;53.10
71177;DHT22;58877;51.992;4.504;2022-08-18T16:27:42;27.98;53.61
71177;DHT22;58877;51.992;4.504;2022-08-18T16:30:11;28.10;53.18
71177;DHT22;58877;51.992;4.504;2022-08-18T16:32:37;28.46;51.44
71177;DHT22;58877;51.992;4.504;2022-08-18T16:35:06;28.52;51.61
71177;DHT22;58877;51.992;4.504;2022-08-18T16:37:32;28.23;52.29
71177;DHT22;58877;51.992;4.504;2022-08-18T16:39:58;28.01;52.44
71177;DHT22;58877;51.992;4.504;2022-08-18T16:42:23;27.85;52.65
71177;DHT22;58877;51.992;4.504;2022-08-18T16:44:49;27.62;53.28
71177;DHT22;58877;51.992;4.504;2022-08-18T16:47:15;27.54;53.17
71177;DHT22;58877;51.992;4.504;2022-08-18T16:49:43;27.55;53.68
71177;DHT22;58877;51.992;4.504;2022-08-18T16:52:14;27.47;53.99
71177;DHT22;58877;51.992;4.504;2022-08-18T16:54:41;27.52;53.84
71177;DHT22;58877;51.992;4.504;2022-08-18T16:57:08;27.92;54.63
71177;DHT22;58877;51.992;4.504;2022-08-18T16:59:33;28.46;51.49
71177;DHT22;58877;51.992;4.504;2022-08-18T17:02:17;28.03;52.44
71177;DHT22;58877;51.992;4.504;2022-08-18T17:05:03;27.82;52.33
71177;DHT22;58877;51.992;4.504;2022-08-18T17:07:29;27.66;53.22
71177;DHT22;58877;51.992;4.504;2022-08-18T17:09:56;27.33;53.27
71177;DHT22;58877;51.992;4.504;2022-08-18T17:12:22;27.06;53.91
71177;DHT22;58877;51.992;4.504;2022-08-18T17:14:48;26.47;55.38
71177;DHT22;58877;51.992;4.504;2022-08-18T17:17:13;26.69;55.04
71177;DHT22;58877;51.992;4.504;2022-08-18T17:19:42;27.00;54.01
71177;DHT22;58877;51.992;4.504;2022-08-18T17:22:08;27.11;54.46
71177;DHT22;58877;51.992;4.504;2022-08-18T17:24:35;27.12;53.51
71177;DHT22;58877;51.992;4.504;2022-08-18T17:27:18;26.57;55.02
71177;DHT22;58877;51.992;4.504;2022-08-18T17:32:45;26.87;54.05
71177;DHT22;58877;51.992;4.504;2022-08-18T17:35:20;27.03;53.83
71177;DHT22;58877;51.992;4.504;2022-08-18T17:40:53;27.49;53.12
71177;DHT22;58877;51.992;4.504;2022-08-18T17:43:24;26.61;54.79
71177;DHT22;58877;51.992;4.504;2022-08-18T17:45:57;26.25;55.97
71177;DHT22;58877;51.992;4.504;2022-08-18T17:48:47;26.52;56.09
71177;DHT22;58877;51.992;4.504;2022-08-18T17:51:24;26.66;55.29
71177;DHT22;58877;51.992;4.504;2022-08-18T17:56:54;26.33;55.68
71177;DHT22;58877;51.992;4.504;2022-08-18T17:59:32;26.32;55.78
71177;DHT22;58877;51.992;4.504;2022-08-18T18:04:46;26.36;55.93
71177;DHT22;58877;51.992;4.504;2022-08-18T18:07:36;26.16;56.31
71177;DHT22;58877;51.992;4.504;2022-08-18T18:13:08;26.35;56.61
71177;DHT22;58877;51.992;4.504;2022-08-18T18:15:37;26.15;56.70
71177;DHT22;58877;51.992;4.504;2022-08-18T18:21:06;25.16;59.69
71177;DHT22;58877;51.992;4.504;2022-08-18T18:23:38;24.80;60.99
71177;DHT22;58877;51.992;4.504;2022-08-18T18:26:20;24.63;61.57
71177;DHT22;58877;51.992;4.504;2022-08-18T18:28:47;24.32;62.68
71177;DHT22;58877;51.992;4.504;2022-08-18T18:31:23;24.08;63.59
71177;DHT22;58877;51.992;4.504;2022-08-18T18:34:03;23.98;64.09
71177;DHT22;58877;51.992;4.504;2022-08-18T18:36:37;23.89;64.34
71177;DHT22;58877;51.992;4.504;2022-08-18T18:39:16;23.68;65.17
71177;DHT22;58877;51.992;4.504;2022-08-18T18:41:45;23.59;65.58
71177;DHT22;58877;51.992;4.504;2022-08-18T18:44:13;23.47;66.17
71177;DHT22;58877;51.992;4.504;2022-08-18T18:46:52;23.37;66.41
71177;DHT22;58877;51.992;4.504;2022-08-18T18:49:48;23.46;66.44
71177;DHT22;58877;51.992;4.504;2022-08-18T18:52:40;23.48;66.13
71177;DHT22;58877;51.992;4.504;2022-08-18T18:55:16;23.24;66.83
71177;DHT22;58877;51.992;4.504;2022-08-18T18:58:05;23.23;67.28
71177;DHT22;58877;51.992;4.504;2022-08-18T19:00:41;23.08;67.35
71177;DHT22;58877;51.992;4.504;2022-08-18T19:03:27;23.10;67.56
71177;DHT22;58877;51.992;4.504;2022-08-18T19:09:13;23.16;67.40
71177;DHT22;58877;51.992;4.504;2022-08-18T19:12:41;23.21;66.76
71177;DHT22;58877;51.992;4.504;2022-08-18T19:14:52;23.21;66.80